Home > Products > Valid Products > MTR

000
SAUS45 KTWC 260352
MTRSAD
METAR KSAD 260351Z AUTO 31019G24KT 10SM SCT110 21/M01 A2974 RMK AO2
SLP034 T02061006





000
SAUS45 KTWC 260253
MTRSAD
METAR KSAD 260251Z AUTO 31013KT 10SM SCT120 22/M02 A2974 RMK AO2
SLP035 T02171017 55002





000
SAUS45 KTWC 260253
MTRSAD
METAR KSAD 260251Z AUTO 31013KT 10SM SCT120 22/M02 A2974 RMK AO2
SLP035 T02171017 55002





000
SAUS45 KTWC 260152
MTRSAD
METAR KSAD 260151Z AUTO 30011KT 10SM FEW110 23/00 A2973 RMK AO2
SLP034 T02280000





000
SAUS45 KTWC 260052
MTRSAD
METAR KSAD 260051Z AUTO 28018G24KT 10SM SCT110 24/M02 A2974 RMK AO2
SLP038 T02391017





000
SAUS45 KTWC 252352
MTRSAD
METAR KSAD 252351Z AUTO 28014G33KT 10SM BKN110 24/M02 A2975 RMK AO2
PK WND 23033/2344 SLP042 T02441022 10267 20200 56026





000
SAUS45 KTWC 252352
MTRSAD
METAR KSAD 252351Z AUTO 28014G33KT 10SM BKN110 24/M02 A2975 RMK AO2
PK WND 23033/2344 SLP042 T02441022 10267 20200 56026





000
SAUS45 KTWC 252253
MTRSAD
METAR KSAD 252251Z AUTO VRB06KT 10SM SCT100 26/M01 A2977 RMK AO2
SLP044 T02611006





000
SAUS45 KTWC 252253
MTRSAD
METAR KSAD 252251Z AUTO VRB06KT 10SM SCT100 26/M01 A2977 RMK AO2
SLP044 T02611006





000
SAUS45 KTWC 252153
MTRSAD
METAR KSAD 252151Z AUTO VRB05KT 10SM CLR 25/01 A2980 RMK AO2 SLP058
T02500006





000
SAUS45 KTWC 252052
MTRSAD
METAR KSAD 252051Z AUTO VRB05KT 10SM SCT085 24/01 A2983 RMK AO2
SLP069 T02390006 56027





000
SAUS45 KTWC 251952
MTRSAD
METAR KSAD 251951Z AUTO 32005KT 10SM CLR 23/01 A2986 RMK AO2 SLP075
T02280011





000
SAUS45 KTWC 251853
MTRSAD
METAR KSAD 251851Z AUTO VRB04KT 10SM CLR 22/02 A2989 RMK AO2 SLP088
T02220017





000
SAUS45 KTWC 251752
MTRSAD
METAR KSAD 251751Z AUTO 00000KT 10SM CLR 20/02 A2992 RMK AO2 SLP101
T02000022 10206 20067 58011





000
SAUS45 KTWC 251652
MTRSAD
METAR KSAD 251651Z AUTO 21004KT 10SM CLR 18/03 A2994 RMK AO2 SLP107
T01830033





000
SAUS45 KTWC 251552
MTRSAD
METAR KSAD 251551Z AUTO 24005KT 10SM CLR 17/03 A2995 RMK AO2 SLP108
T01720033





000
SAUS45 KTWC 251452
MTRSAD
METAR KSAD 251451Z AUTO 00000KT 10SM CLR 15/03 A2996 RMK AO2 SLP113
T01500028 51008





000
SAUS45 KTWC 251452
MTRSAD
METAR KSAD 251451Z AUTO 00000KT 10SM CLR 15/03 A2996 RMK AO2 SLP113
T01500028 51008





000
SAUS45 KTWC 251353
MTRSAD
METAR KSAD 251351Z AUTO 00000KT 10SM CLR 11/02 A2995 RMK AO2 SLP115
T01060017





000
SAUS45 KTWC 251353
MTRSAD
METAR KSAD 251351Z AUTO 00000KT 10SM CLR 11/02 A2995 RMK AO2 SLP115
T01060017





000
SAUS45 KTWC 251252
MTRSAD
METAR KSAD 251251Z AUTO 00000KT 10SM CLR 08/02 A2994 RMK AO2 SLP112
T00830017





000
SAUS45 KTWC 251152
MTRSAD
METAR KSAD 251151Z AUTO 10004KT 10SM CLR 08/01 A2993 RMK AO2 SLP108
T00780011 10139 20078 57000





000
SAUS45 KTWC 251152
MTRSAD
METAR KSAD 251151Z AUTO 10004KT 10SM CLR 08/01 A2993 RMK AO2 SLP108
T00780011 10139 20078 57000





000
SAUS45 KTWC 251052
MTRSAD
METAR KSAD 251051Z AUTO 09003KT 10SM CLR 09/02 A2993 RMK AO2 SLP105
T00890017





000
SAUS45 KTWC 251052
MTRSAD
METAR KSAD 251051Z AUTO 09003KT 10SM CLR 09/02 A2993 RMK AO2 SLP105
T00890017





000
SAUS45 KTWC 250952
MTRSAD
METAR KSAD 250951Z AUTO 14004KT 10SM CLR 09/02 A2993 RMK AO2 SLP105
T00940017





000
SAUS45 KTWC 250852
MTRSAD
METAR KSAD 250851Z AUTO 11005KT 10SM CLR 11/02 A2993 RMK AO2 SLP105
T01060022 57000





000
SAUS45 KTWC 250752
MTRSAD
METAR KSAD 250751Z AUTO 17003KT 10SM CLR 13/03 A2993 RMK AO2 SLP104
T01330033





000
SAUS45 KTWC 250652
MTRSAD
METAR KSAD 250651Z AUTO 31006KT 10SM CLR 12/03 A2993 RMK AO2 SLP104
T01220028 402330122





000
SAUS45 KTWC 250552
MTRSAD
METAR KSAD 250551Z AUTO 27005KT 10SM CLR 13/03 A2993 RMK AO2 SLP103
T01330033 10222 20133 50009





000
SAUS45 KTWC 250552
MTRSAD
METAR KSAD 250551Z AUTO 27005KT 10SM CLR 13/03 A2993 RMK AO2 SLP103
T01330033 10222 20133 50009





000
SAUS45 KTWC 250452
MTRSAD
METAR KSAD 250451Z AUTO 27005KT 10SM CLR 14/02 A2993 RMK AO2 SLP105
T01390017





000
SAUS45 KTWC 250352
MTRSAD
METAR KSAD 250351Z AUTO 34007KT 10SM FEW095 17/02 A2992 RMK AO2
SLP098 T01670022





000
SAUS45 KTWC 250253
MTRSAD
METAR KSAD 250251Z AUTO 33007KT 10SM FEW100 18/02 A2990 RMK AO2
SLP092 T01780022 53006





000
SAUS45 KTWC 250153
MTRSAD
METAR KSAD 250151Z AUTO 33009KT 10SM FEW100 19/02 A2989 RMK AO2
SLP091 T01940022





000
SAUS45 KTWC 250052
MTRSAD
METAR KSAD 250051Z AUTO 33018KT 10SM CLR 21/03 A2989 RMK AO2 SLP087
T02060028





000
SAUS45 KTWC 242353
MTRSAD
METAR KSAD 242351Z AUTO 32016G21KT 10SM FEW100 22/01 A2988 RMK AO2
PK WND 30027/2316 SLP084 T02220011 10233 20189 56012





000
SAUS45 KTWC 242353
MTRSAD
METAR KSAD 242351Z AUTO 32016G21KT 10SM FEW100 22/01 A2988 RMK AO2
PK WND 30027/2316 SLP084 T02220011 10233 20189 56012





000
SAUS45 KTWC 242252
MTRSAD
METAR KSAD 242251Z AUTO 31021G26KT 10SM FEW080 SCT100 23/01 A2989
RMK AO2 PK WND 32028/2239 SLP084 T02280011





000
SAUS45 KTWC 242153
MTRSAD
METAR KSAD 242151Z AUTO 30012G24KT 10SM FEW100 23/M01 A2989 RMK AO2
SLP086 T02281006





000
SAUS45 KTWC 242052
MTRSAD
METAR KSAD 242051Z AUTO 30015G23KT 10SM FEW100 22/01 A2992 RMK AO2
PK WND 29029/2014 SLP098 T02220011 58007





000
SAUS45 KTWC 241953
MTRSAD
METAR KSAD 241951Z AUTO 32014G22KT 10SM FEW060 BKN080 21/03 A2994
RMK AO2 PK WND 32030/1855 SLP104 T02060033





000
SAUS45 KTWC 241852
MTRSAD
METAR KSAD 241851Z AUTO 32020G28KT 10SM FEW110 21/03 A2994 RMK AO2
PK WND 31028/1845 SLP101 T02060033





000
SAUS45 KTWC 241752
MTRSAD
METAR KSAD 241751Z AUTO 31015G21KT 10SM SCT060 21/03 A2995 RMK AO2
SLP103 T02060028 10206 20128 50002





000
SAUS45 KTWC 241653
MTRSAD
METAR KSAD 241651Z AUTO 32012G19KT 10SM CLR 19/03 A2995 RMK AO2
SLP105 T01940033





000
SAUS45 KTWC 241552
MTRSAD
METAR KSAD 241551Z AUTO 31011G20KT 10SM CLR 18/03 A2995 RMK AO2
SLP103 T01780028





000
SAUS45 KTWC 241452
MTRSAD
METAR KSAD 241451Z AUTO 32015KT 10SM CLR 16/03 A2994 RMK AO2 SLP103
T01610033 51022





000
SAUS45 KTWC 241452
MTRSAD
METAR KSAD 241451Z AUTO 32015KT 10SM CLR 16/03 A2994 RMK AO2 SLP103
T01610033 51022





000
SAUS45 KTWC 241352
MTRSAD
METAR KSAD 241351Z AUTO 32015KT 10SM CLR 14/02 A2992 RMK AO2 SLP097
T01390022





000
SAUS45 KTWC 241253
MTRSAD
METAR KSAD 241251Z AUTO 32009KT 10SM CLR 13/02 A2989 RMK AO2 SLP086
T01330017





000
SAUS45 KTWC 241253
MTRSAD
METAR KSAD 241251Z AUTO 32009KT 10SM CLR 13/02 A2989 RMK AO2 SLP086
T01330017





000
SAUS45 KTWC 241152
MTRSAD
METAR KSAD 241151Z AUTO 31009KT 10SM FEW080 14/02 A2987 RMK AO2
SLP075 T01390017 10189 20139 53010





000
SAUS45 KTWC 241152
MTRSAD
METAR KSAD 241151Z AUTO 31009KT 10SM FEW080 14/02 A2987 RMK AO2
SLP075 T01390017 10189 20139 53010





000
SAUS45 KTWC 241053
MTRSAD
METAR KSAD 241051Z AUTO 32008KT 10SM SCT080 BKN110 14/01 A2986 RMK
AO2 SLP070 T01440011





000
SAUS45 KTWC 240953
MTRSAD
METAR KSAD 240951Z AUTO 30010KT 10SM CLR 14/01 A2983 RMK AO2 SLP060
T01440006





000
SAUS45 KTWC 240953
MTRSAD
METAR KSAD 240951Z AUTO 30010KT 10SM CLR 14/01 A2983 RMK AO2 SLP060
T01440006





000
SAUS45 KTWC 240852
MTRSAD
METAR KSAD 240851Z AUTO 32007KT 10SM CLR 14/01 A2983 RMK AO2 SLP061
T01440006 58000





000
SAUS45 KTWC 240752
MTRSAD
METAR KSAD 240751Z AUTO 32008KT 10SM CLR 16/01 A2984 RMK AO2 SLP064
T01560006





000
SAUS45 KTWC 240752
MTRSAD
METAR KSAD 240751Z AUTO 32008KT 10SM CLR 16/01 A2984 RMK AO2 SLP064
T01560006





000
SAUS45 KTWC 240652
MTRSAD
METAR KSAD 240651Z AUTO 32011KT 10SM FEW100 17/01 A2984 RMK AO2
SLP063 T01720006 402830083





000
SAUS45 KTWC 240652
MTRSAD
METAR KSAD 240651Z AUTO 32011KT 10SM FEW100 17/01 A2984 RMK AO2
SLP063 T01720006 402830083





000
SAUS45 KTWC 240552
MTRSAD
METAR KSAD 240551Z AUTO 32013KT 10SM FEW120 19/00 A2984 RMK AO2
SLP060 T01890000 10272 20183 51019





000
SAUS45 KTWC 240552
MTRSAD
METAR KSAD 240551Z AUTO 32013KT 10SM FEW120 19/00 A2984 RMK AO2
SLP060 T01890000 10272 20183 51019





000
SAUS45 KTWC 240452
MTRSAD
METAR KSAD 240451Z AUTO 32014KT 10SM CLR 19/00 A2983 RMK AO2 SLP058
T01940000





000
SAUS45 KTWC 240352
MTRSAD
METAR KSAD 240351Z AUTO 29013KT 10SM CLR 21/M01 A2980 RMK AO2 SLP048
T02061011





000
SAUS45 KTWC 240352
MTRSAD
METAR KSAD 240351Z AUTO 29013KT 10SM CLR 21/M01 A2980 RMK AO2 SLP048
T02061011





000
SAUS45 KTWC 240253
MTRSAD
METAR KSAD 240251Z AUTO 30008KT 10SM FEW120 22/M04 A2977 RMK AO2
SLP043 T02171039 53016





000
SAUS45 KTWC 240153
MTRSAD
METAR KSAD 240151Z AUTO 25006KT 10SM CLR 23/M07 A2974 RMK AO2 SLP035
T02281067





000
SAUS45 KTWC 240153
MTRSAD
METAR KSAD 240151Z AUTO 25006KT 10SM CLR 23/M07 A2974 RMK AO2 SLP035
T02281067





000
SAUS45 KTWC 240052
MTRSAD
METAR KSAD 240051Z AUTO 24011KT 10SM CLR 24/M07 A2973 RMK AO2 SLP033
T02441067





000
SAUS45 KTWC 240052
MTRSAD
METAR KSAD 240051Z AUTO 24011KT 10SM CLR 24/M07 A2973 RMK AO2 SLP033
T02441067





000
SAUS45 KTWC 232352
MTRSAD
METAR KSAD 232351Z AUTO 25012G18KT 10SM CLR 26/M08 A2972 RMK AO2
SLP029 T02611078 10283 20239 56017





000
SAUS45 KTWC 232352
MTRSAD
METAR KSAD 232351Z AUTO 25012G18KT 10SM CLR 26/M08 A2972 RMK AO2
SLP029 T02611078 10283 20239 56017





000
SAUS45 KTWC 232252
MTRSAD
METAR KSAD 232251Z AUTO 25010G18KT 10SM FEW120 27/M06 A2973 RMK AO2
SLP030 T02671056





000
SAUS45 KTWC 232152
MTRSAD
METAR KSAD 232151Z AUTO 22016G25KT 10SM CLR 27/M05 A2975 RMK AO2 PK
WND 22027/2120 WSHFT 2112 SLP037 T02671050





000
SAUS45 KTWC 232133
MTRSAD
SPECI KSAD 232132Z AUTO 21019KT 10SM FEW120 28/M06 A2976 RMK AO2 PK
WND 22027/2120 WSHFT 2112 T02831056





000
SAUS45 KTWC 232133
MTRSAD
SPECI KSAD 232132Z AUTO 21019KT 10SM FEW120 28/M06 A2976 RMK AO2 PK
WND 22027/2120 WSHFT 2112 T02831056





000
SAUS45 KTWC 232053
MTRSAD
METAR KSAD 232051Z AUTO 18013G20KT 10SM SCT110 28/M04 A2978 RMK AO2
SLP044 T02781044 58032





000
SAUS45 KTWC 231952
MTRSAD
METAR KSAD 231951Z AUTO 10SM CLR 26/M03 A2982 RMK AO2 SLP058
T02611033





000
SAUS45 KTWC 231852
MTRSAD
METAR KSAD 231851Z AUTO 17011G21KT 10SM CLR 26/M04 A2985 RMK AO2
SLP066 T02561039





000
SAUS45 KTWC 231852
MTRSAD
METAR KSAD 231851Z AUTO 17011G21KT 10SM CLR 26/M04 A2985 RMK AO2
SLP066 T02561039





000
SAUS45 KTWC 231752
MTRSAD
METAR KSAD 231751Z AUTO 19009G19KT 10SM CLR 24/M03 A2988 RMK AO2
SLP078 T02441028 10250 20083 58010





000
SAUS45 KTWC 231653
MTRSAD
METAR KSAD 231651Z AUTO 18009G19KT 10SM CLR 23/01 A2990 RMK AO2
SLP083 T02280006





000
SAUS45 KTWC 231653
MTRSAD
METAR KSAD 231651Z AUTO 18009G19KT 10SM CLR 23/01 A2990 RMK AO2
SLP083 T02280006





000
SAUS45 KTWC 231552
MTRSAD
METAR KSAD 231551Z AUTO 12009KT 10SM CLR 21/M01 A2991 RMK AO2 SLP089
T02111011





000
SAUS45 KTWC 231552
MTRSAD
METAR KSAD 231551Z AUTO 12009KT 10SM CLR 21/M01 A2991 RMK AO2 SLP089
T02111011





000
SAUS45 KTWC 231452
MTRSAD
METAR KSAD 231451Z AUTO 12008KT 10SM CLR 18/M04 A2991 RMK AO2 SLP090
T01831044 53010





000
SAUS45 KTWC 231352
MTRSAD
METAR KSAD 231351Z AUTO 18003KT 10SM CLR 13/M06 A2990 RMK AO2 SLP090
T01331056





000
SAUS45 KTWC 231352
MTRSAD
METAR KSAD 231351Z AUTO 18003KT 10SM CLR 13/M06 A2990 RMK AO2 SLP090
T01331056





000
SAUS45 KTWC 231253
MTRSAD
METAR KSAD 231251Z AUTO 10005KT 10SM CLR 09/M07 A2989 RMK AO2 SLP086
T00941067





000
SAUS45 KTWC 231253
MTRSAD
METAR KSAD 231251Z AUTO 10005KT 10SM CLR 09/M07 A2989 RMK AO2 SLP086
T00941067





000
SAUS45 KTWC 231152
MTRSAD
METAR KSAD 231151Z AUTO 10005KT 10SM CLR 09/M07 A2988 RMK AO2 SLP083
T00891072 10183 20089 53002





000
SAUS45 KTWC 231152
MTRSAD
METAR KSAD 231151Z AUTO 10005KT 10SM CLR 09/M07 A2988 RMK AO2 SLP083
T00891072 10183 20089 53002





000
SAUS45 KTWC 231052
MTRSAD
METAR KSAD 231051Z AUTO 07003KT 10SM CLR 11/M07 A2987 RMK AO2 SLP078
T01061072





000
SAUS45 KTWC 231052
MTRSAD
METAR KSAD 231051Z AUTO 07003KT 10SM CLR 11/M07 A2987 RMK AO2 SLP078
T01061072





000
SAUS45 KTWC 230953
MTRSAD
METAR KSAD 230951Z AUTO 12007KT 10SM CLR 10/M08 A2988 RMK AO2 SLP082
T01001078





000
SAUS45 KTWC 230953
MTRSAD
METAR KSAD 230951Z AUTO 12007KT 10SM CLR 10/M08 A2988 RMK AO2 SLP082
T01001078





000
SAUS45 KTWC 230853
MTRSAD
METAR KSAD 230851Z AUTO 11006KT 10SM CLR 12/M07 A2987 RMK AO2 SLP077
T01221072 51005





000
SAUS45 KTWC 230853
MTRSAD
METAR KSAD 230851Z AUTO 11006KT 10SM CLR 12/M07 A2987 RMK AO2 SLP077
T01221072 51005





000
SAUS45 KTWC 230752
MTRSAD
METAR KSAD 230751Z AUTO 32007KT 10SM CLR 14/M07 A2987 RMK AO2 SLP078
T01391072





000
SAUS45 KTWC 230653
MTRSAD
METAR KSAD 230651Z AUTO 29009KT 10SM CLR 18/M06 A2988 RMK AO2 SLP075
T01781061 402830100





000
SAUS45 KTWC 230653
MTRSAD
METAR KSAD 230651Z AUTO 29009KT 10SM CLR 18/M06 A2988 RMK AO2 SLP075
T01781061 402830100





000
SAUS45 KTWC 230552
MTRSAD
METAR KSAD 230551Z AUTO 00000KT 10SM CLR 16/M08 A2986 RMK AO2 SLP072
T01611078 10272 20161 51016





000
SAUS45 KTWC 230552
MTRSAD
METAR KSAD 230551Z AUTO 00000KT 10SM CLR 16/M08 A2986 RMK AO2 SLP072
T01611078 10272 20161 51016





    US Dept of Commerce
    National Oceanic and Atmospheric Administration
    National Weather Service
    1325 East West Highway
    Silver Spring, MD 20910
    Page Author: NWS Internet Services Team
Disclaimer
Information Quality
Credits
Glossary
Privacy Policy
Freedom of Information Act (FOIA)
About Us
Career Opportunities